Time;durP1;ratioP1;P1;durP2;ratioP2;P2;SDS_P1;SDS_P2;PMS_P1;PMS_P2;Temp;Humidity;BMP_temperature;BMP_pressure;BME280_temperature;BME280_humidity;BME280_pressure;Samples;Min_cycle;Max_cycle;Signal;HPM_P1;HPM_P2
2022/01/03 00:00:21;;;;;;;11.77;3.17;;;10.30;99.90;;;;;;5075526;28;21520;-62
2022/01/03 00:02:50;;;;;;;23.33;3.63;;;10.20;99.90;;;;;;5066166;28;20198;-62
2022/01/03 00:05:19;;;;;;;15.03;3.13;;;10.20;99.90;;;;;;5055546;28;20693;-62
2022/01/03 00:07:49;;;;;;;19.13;3.50;;;10.20;99.90;;;;;;5082887;28;20721;-61
2022/01/03 00:10:19;;;;;;;18.97;3.10;;;10.30;99.90;;;;;;5053515;28;20184;-62
2022/01/03 00:12:49;;;;;;;14.97;2.90;;;10.20;99.90;;;;;;5074963;28;20253;-62
2022/01/03 00:15:19;;;;;;;18.53;3.57;;;10.20;99.90;;;;;;5075426;28;20228;-62
2022/01/03 00:17:48;;;;;;;18.10;3.10;;;10.20;99.90;;;;;;5077746;28;20192;-62
2022/01/03 00:20:17;;;;;;;15.20;3.30;;;10.20;99.90;;;;;;5083526;28;20192;-62
2022/01/03 00:22:55;;;;;;;17.67;3.30;;;10.30;99.90;;;;;;5082935;28;20650;-62
2022/01/03 00:25:29;;;;;;;17.23;3.00;;;10.30;99.90;;;;;;5071669;28;20290;-62
2022/01/03 00:28:03;;;;;;;18.63;3.83;;;10.30;99.90;;;;;;5073246;28;20215;-61
2022/01/03 00:30:37;;;;;;;20.67;4.10;;;10.30;99.90;;;;;;5074773;28;20202;-62
2022/01/03 00:33:07;;;;;;;26.13;3.90;;;10.40;99.90;;;;;;5078109;28;20651;-62
2022/01/03 00:35:38;;;;;;;22.77;4.20;;;10.30;99.90;;;;;;5072479;28;20200;-62
2022/01/03 00:38:09;;;;;;;23.30;3.73;;;10.30;99.90;;;;;;5072239;28;20218;-62
2022/01/03 00:40:40;;;;;;;28.50;4.13;;;10.30;99.90;;;;;;5076226;28;20693;-62
2022/01/03 00:43:08;;;;;;;24.47;3.73;;;10.20;99.90;;;;;;5078060;28;20230;-61
2022/01/03 00:45:36;;;;;;;19.97;4.03;;;10.20;99.90;;;;;;5063036;28;20240;-62
2022/01/03 00:48:07;;;;;;;24.10;3.93;;;10.20;99.90;;;;;;5078740;28;20215;-62
2022/01/03 00:50:36;;;;;;;30.90;4.77;;;10.20;99.90;;;;;;5076490;28;20282;-62
2022/01/03 00:53:05;;;;;;;23.57;4.23;;;10.10;99.90;;;;;;5065528;28;20252;-62
2022/01/03 00:55:35;;;;;;;20.53;3.40;;;10.10;99.90;;;;;;5077889;28;20259;-62
2022/01/03 00:58:07;;;;;;;20.60;4.40;;;10.10;99.90;;;;;;5082811;28;20281;-62
2022/01/03 01:00:37;;;;;;;21.97;4.07;;;10.10;99.90;;;;;;5058293;28;20200;-61
2022/01/03 01:03:15;;;;;;;23.47;4.20;;;10.10;99.90;;;;;;5069444;28;20206;-62
2022/01/03 01:05:46;;;;;;;25.93;4.10;;;10.10;99.90;;;;;;5055453;28;20187;-62
2022/01/03 01:08:19;;;;;;;20.17;3.67;;;10.10;99.90;;;;;;5082123;28;20301;-62
2022/01/03 01:10:51;;;;;;;26.70;4.57;;;10.10;99.90;;;;;;5076517;28;20214;-61
2022/01/03 01:13:21;;;;;;;20.40;3.90;;;10.20;99.90;;;;;;5075172;28;20237;-61
2022/01/03 01:15:49;;;;;;;23.10;4.13;;;10.20;99.90;;;;;;5065767;28;20717;-62
2022/01/03 01:18:18;;;;;;;25.40;4.23;;;10.10;99.90;;;;;;5075708;28;20173;-62
2022/01/03 01:20:46;;;;;;;26.00;3.30;;;10.10;99.90;;;;;;5081595;28;20290;-62
2022/01/03 01:23:15;;;;;;;19.43;3.27;;;10.10;99.90;;;;;;5078477;28;20195;-62
2022/01/03 01:28:33;;;;;;;20.83;3.60;;;10.20;99.90;;;;;;5069204;28;20239;-61
2022/01/03 01:31:03;;;;;;;22.57;3.80;;;10.20;99.90;;;;;;5044883;28;20204;-62
2022/01/03 01:33:34;;;;;;;19.30;3.70;;;10.20;99.90;;;;;;5062951;28;20232;-61
2022/01/03 01:36:13;;;;;;;19.80;3.70;;;10.30;99.90;;;;;;5060786;28;20196;-62
2022/01/03 01:38:43;;;;;;;19.20;3.83;;;10.30;99.90;;;;;;5075553;28;20223;-62
2022/01/03 01:41:12;;;;;;;18.97;3.63;;;10.30;99.90;;;;;;5077721;28;20202;-62
2022/01/03 01:43:44;;;;;;;21.37;3.50;;;10.30;99.90;;;;;;5077395;28;20265;-62
2022/01/03 01:46:14;;;;;;;25.67;4.53;;;10.20;99.90;;;;;;5060032;28;20197;-62
2022/01/03 01:48:44;;;;;;;21.93;3.60;;;10.30;99.90;;;;;;5055887;28;20297;-62
2022/01/03 01:51:15;;;;;;;23.20;3.27;;;10.40;99.90;;;;;;5081661;28;20223;-62
2022/01/03 01:53:45;;;;;;;28.80;4.17;;;10.30;99.90;;;;;;5052420;28;20196;-62
2022/01/03 01:56:19;;;;;;;25.27;3.30;;;10.40;99.90;;;;;;5072697;28;20196;-61
2022/01/03 01:59:10;;;;;;;21.23;3.67;;;10.40;99.90;;;;;;5080115;28;20326;-61
2022/01/03 02:01:53;;;;;;;25.67;4.43;;;10.30;99.90;;;;;;5052860;28;20238;-62
2022/01/03 02:04:35;;;;;;;18.77;4.00;;;10.30;99.90;;;;;;5075934;28;20192;-62
2022/01/03 02:07:25;;;;;;;16.97;3.67;;;10.40;99.90;;;;;;5078340;28;20211;-61
2022/01/03 02:10:04;;;;;;;25.93;3.90;;;10.40;99.90;;;;;;5054605;28;20239;-61
2022/01/03 02:12:38;;;;;;;24.83;4.10;;;10.40;99.90;;;;;;5065735;28;20225;-62
2022/01/03 02:15:11;;;;;;;19.67;3.50;;;10.40;99.90;;;;;;5081091;28;20226;-62
2022/01/03 02:17:44;;;;;;;20.43;4.23;;;10.30;99.90;;;;;;5077799;28;20223;-61
2022/01/03 02:20:16;;;;;;;17.60;3.67;;;10.30;99.90;;;;;;5077132;28;20257;-62
2022/01/03 02:22:45;;;;;;;14.77;2.97;;;10.30;99.90;;;;;;5081687;28;20283;-62
2022/01/03 02:25:16;;;;;;;20.93;4.40;;;10.40;99.90;;;;;;5076492;28;20716;-62
2022/01/03 02:27:46;;;;;;;20.67;3.80;;;10.40;99.90;;;;;;5086223;28;20257;-62
2022/01/03 02:30:17;;;;;;;23.60;3.93;;;10.40;99.90;;;;;;5081570;28;20740;-61
2022/01/03 02:32:46;;;;;;;22.70;4.53;;;10.30;99.90;;;;;;5078326;28;20208;-61
2022/01/03 02:35:16;;;;;;;22.33;3.70;;;10.30;99.90;;;;;;5083128;28;20211;-62
2022/01/03 02:37:46;;;;;;;29.07;3.80;;;10.30;99.90;;;;;;5083053;28;20558;-62
2022/01/03 02:40:15;;;;;;;24.50;4.03;;;10.30;99.90;;;;;;5082528;28;20203;-62
2022/01/03 02:42:44;;;;;;;22.73;4.47;;;10.20;99.90;;;;;;5081491;28;20204;-62
2022/01/03 02:45:16;;;;;;;24.53;4.53;;;10.20;99.90;;;;;;5080931;28;20195;-62
2022/01/03 02:47:46;;;;;;;21.87;4.00;;;10.20;99.90;;;;;;5067551;28;20686;-61
2022/01/03 02:50:18;;;;;;;20.70;3.63;;;10.20;99.90;;;;;;5083675;28;20196;-62
2022/01/03 02:52:47;;;;;;;18.77;3.87;;;10.10;99.90;;;;;;5068739;28;20227;-62
2022/01/03 02:55:16;;;;;;;16.60;3.83;;;10.10;99.90;;;;;;5076457;28;20752;-62
2022/01/03 02:57:46;;;;;;;28.17;3.53;;;10.00;99.90;;;;;;5063110;28;20192;-62
2022/01/03 03:00:18;;;;;;;20.17;3.83;;;10.00;99.90;;;;;;5075828;28;20242;-62
2022/01/03 03:02:49;;;;;;;23.47;3.83;;;9.90;99.90;;;;;;5077981;28;20207;-61
2022/01/03 03:05:19;;;;;;;19.53;3.53;;;10.00;99.90;;;;;;5080718;28;20785;-62
2022/01/03 03:07:49;;;;;;;22.60;4.60;;;10.00;99.90;;;;;;5060351;28;20219;-62
2022/01/03 03:10:21;;;;;;;29.00;4.33;;;9.90;99.90;;;;;;5063908;28;20185;-61
2022/01/03 03:12:50;;;;;;;19.67;4.13;;;9.90;99.90;;;;;;5080221;28;20211;-61
2022/01/03 03:15:18;;;;;;;22.20;3.47;;;9.90;99.90;;;;;;5075315;28;20224;-62
2022/01/03 03:17:48;;;;;;;27.57;4.37;;;10.00;99.90;;;;;;5078132;28;20284;-62
2022/01/03 03:20:20;;;;;;;25.73;4.13;;;9.90;99.90;;;;;;5056008;28;20255;-62
2022/01/03 03:22:49;;;;;;;23.70;3.60;;;9.80;99.90;;;;;;5083701;28;20199;-62
2022/01/03 03:25:20;;;;;;;24.63;3.90;;;9.80;99.90;;;;;;5079051;28;20227;-62
2022/01/03 03:27:51;;;;;;;25.40;3.50;;;9.80;99.90;;;;;;5063466;28;20235;-62
2022/01/03 03:30:22;;;;;;;30.90;4.67;;;9.80;99.90;;;;;;5064971;28;20608;-62
2022/01/03 03:32:54;;;;;;;32.00;4.33;;;9.80;99.90;;;;;;5079530;28;20200;-62
2022/01/03 03:35:24;;;;;;;26.97;4.20;;;9.90;99.90;;;;;;5075406;28;20195;-62
2022/01/03 03:37:52;;;;;;;21.80;4.40;;;9.90;99.90;;;;;;5073724;28;20593;-62
2022/01/03 03:40:21;;;;;;;21.30;4.07;;;9.90;99.90;;;;;;5078838;28;20215;-62
2022/01/03 03:42:49;;;;;;;28.20;4.30;;;9.80;99.90;;;;;;5084968;28;20239;-61
2022/01/03 03:45:18;;;;;;;23.90;4.07;;;9.80;99.90;;;;;;5077397;28;20205;-62
2022/01/03 03:47:46;;;;;;;24.80;4.23;;;9.90;99.90;;;;;;5086157;28;20677;-62
2022/01/03 03:50:15;;;;;;;25.83;4.70;;;10.10;99.90;;;;;;5054330;28;20196;-62
2022/01/03 03:52:45;;;;;;;22.97;3.83;;;10.10;99.90;;;;;;5066256;28;20220;-62
2022/01/03 03:55:13;;;;;;;23.77;3.90;;;10.20;99.90;;;;;;5083254;28;20199;-61
2022/01/03 03:57:42;;;;;;;25.17;4.13;;;10.20;99.90;;;;;;5085342;28;20223;-61
2022/01/03 04:00:13;;;;;;;29.27;5.00;;;10.30;99.90;;;;;;5056928;28;20195;-62
2022/01/03 04:02:42;;;;;;;35.30;4.70;;;10.30;99.90;;;;;;5085988;28;20199;-61
2022/01/03 04:05:11;;;;;;;26.33;4.67;;;10.20;99.90;;;;;;5058594;28;20282;-61
2022/01/03 04:07:40;;;;;;;25.23;4.57;;;10.20;99.90;;;;;;5079819;28;20600;-61
2022/01/03 04:10:12;;;;;;;28.20;4.00;;;10.30;99.90;;;;;;5061460;28;20219;-61
2022/01/03 04:12:40;;;;;;;25.17;4.70;;;10.30;99.90;;;;;;5084396;28;20249;-62
2022/01/03 04:15:09;;;;;;;32.47;4.13;;;10.30;99.90;;;;;;5075057;28;20234;-62
2022/01/03 04:17:38;;;;;;;27.00;3.97;;;10.30;99.90;;;;;;5082894;28;20215;-61
2022/01/03 04:20:08;;;;;;;15.03;3.60;;;10.40;99.90;;;;;;5082822;28;20200;-62
2022/01/03 04:22:36;;;;;;;28.20;4.20;;;10.40;99.90;;;;;;5055290;28;20667;-62
2022/01/03 04:25:05;;;;;;;30.83;4.30;;;10.40;99.90;;;;;;5080314;28;20245;-62
2022/01/03 04:27:36;;;;;;;23.97;3.30;;;10.40;99.90;;;;;;5076577;28;20208;-62
2022/01/03 04:30:05;;;;;;;22.33;3.13;;;10.40;99.90;;;;;;5078712;28;20492;-62
2022/01/03 04:32:34;;;;;;;20.70;3.87;;;10.40;99.90;;;;;;5063729;28;20273;-61
2022/01/03 04:35:02;;;;;;;18.60;3.50;;;10.40;99.90;;;;;;5081972;28;20183;-62
2022/01/03 04:37:31;;;;;;;20.33;3.83;;;10.40;99.90;;;;;;5060874;28;20203;-61
2022/01/03 04:39:59;;;;;;;21.93;3.80;;;10.30;99.90;;;;;;5074533;28;21075;-61
2022/01/03 04:42:28;;;;;;;21.33;3.87;;;10.30;99.90;;;;;;5077821;28;20196;-62
2022/01/03 04:44:57;;;;;;;18.77;3.43;;;10.20;99.90;;;;;;5071565;28;20200;-62
2022/01/03 04:47:26;;;;;;;11.93;3.23;;;10.20;99.90;;;;;;5075433;28;20291;-62
2022/01/03 04:49:54;;;;;;;16.10;3.00;;;10.20;99.90;;;;;;5073532;28;20277;-61
2022/01/03 04:52:23;;;;;;;15.73;4.40;;;10.20;99.90;;;;;;5089158;28;20208;-61
2022/01/03 04:54:51;;;;;;;20.03;3.57;;;10.30;99.90;;;;;;5080217;28;20194;-62
2022/01/03 04:57:25;;;;;;;12.10;2.70;;;10.30;99.90;;;;;;5084762;28;20208;-61
2022/01/03 04:59:54;;;;;;;14.03;2.80;;;10.30;99.90;;;;;;5083546;28;20222;-62
2022/01/03 05:02:24;;;;;;;20.23;3.63;;;10.30;99.90;;;;;;5085656;28;20207;-61
2022/01/03 05:04:53;;;;;;;22.73;3.40;;;10.20;99.90;;;;;;5073626;28;20191;-62
2022/01/03 05:07:22;;;;;;;16.63;3.30;;;10.20;99.90;;;;;;5071791;28;20230;-62
2022/01/03 05:09:50;;;;;;;11.97;3.07;;;10.10;99.90;;;;;;5083655;28;20219;-61
2022/01/03 05:12:19;;;;;;;18.13;3.37;;;10.10;99.90;;;;;;5074491;28;20220;-61
2022/01/03 05:14:47;;;;;;;15.03;3.03;;;10.10;99.90;;;;;;5079719;28;20255;-61
2022/01/03 05:17:16;;;;;;;21.83;3.97;;;10.00;99.90;;;;;;5076754;28;20203;-62
2022/01/03 05:19:46;;;;;;;22.90;3.03;;;10.00;99.90;;;;;;5077982;28;20208;-61
2022/01/03 05:22:14;;;;;;;14.83;3.50;;;10.00;99.90;;;;;;5080006;28;20227;-62
2022/01/03 05:24:43;;;;;;;19.40;3.13;;;10.00;99.90;;;;;;5070915;28;20581;-62
2022/01/03 05:27:12;;;;;;;14.07;3.47;;;10.00;99.90;;;;;;5076000;28;20261;-62
2022/01/03 05:29:40;;;;;;;18.37;3.07;;;10.00;99.90;;;;;;5066456;28;20297;-62
2022/01/03 05:32:09;;;;;;;13.17;2.63;;;10.00;99.90;;;;;;5060693;28;20604;-62
2022/01/03 05:34:37;;;;;;;17.07;3.53;;;9.90;99.90;;;;;;5065732;28;20352;-62
2022/01/03 05:37:07;;;;;;;16.30;3.20;;;9.90;99.90;;;;;;5075259;28;20617;-62
2022/01/03 05:39:37;;;;;;;15.03;3.13;;;10.00;99.90;;;;;;5084103;28;20742;-62
2022/01/03 05:42:05;;;;;;;20.73;3.43;;;9.90;99.90;;;;;;5059078;28;20222;-62
2022/01/03 05:44:34;;;;;;;18.23;3.93;;;10.00;99.90;;;;;;5064029;28;20192;-62
2022/01/03 05:47:03;;;;;;;16.13;3.40;;;9.90;99.90;;;;;;5079466;28;20221;-62
2022/01/03 05:49:31;;;;;;;24.73;4.30;;;9.90;99.90;;;;;;5086768;28;20451;-62
2022/01/03 05:51:59;;;;;;;17.57;3.70;;;9.90;99.90;;;;;;5079342;28;20219;-62
2022/01/03 05:54:30;;;;;;;19.47;3.40;;;9.90;99.90;;;;;;5089676;28;20226;-63
2022/01/03 05:56:58;;;;;;;13.80;3.93;;;9.80;99.90;;;;;;5082538;28;20274;-62
2022/01/03 05:59:27;;;;;;;23.47;3.77;;;9.80;99.90;;;;;;5082613;28;20261;-61
2022/01/03 06:01:56;;;;;;;13.63;3.80;;;9.80;99.90;;;;;;5083474;28;20207;-62
2022/01/03 06:04:35;;;;;;;16.43;3.40;;;9.80;99.90;;;;;;5066927;28;20220;-62
2022/01/03 06:07:08;;;;;;;19.70;3.70;;;9.70;99.90;;;;;;5061247;28;20184;-62
2022/01/03 06:09:38;;;;;;;25.80;4.13;;;9.70;99.90;;;;;;5079610;28;20211;-62
2022/01/03 06:12:08;;;;;;;22.20;3.93;;;9.80;99.90;;;;;;5076292;28;20195;-62
2022/01/03 06:14:37;;;;;;;21.77;3.83;;;9.80;99.90;;;;;;5086342;28;20719;-62
2022/01/03 06:17:06;;;;;;;21.73;3.90;;;9.80;99.90;;;;;;5080705;28;20327;-61
2022/01/03 06:19:36;;;;;;;22.70;4.23;;;9.80;99.90;;;;;;5067711;28;20710;-62
2022/01/03 06:22:07;;;;;;;17.43;3.73;;;9.80;99.90;;;;;;5061752;28;20217;-62
2022/01/03 06:24:38;;;;;;;21.43;3.63;;;9.90;99.90;;;;;;5078268;28;20226;-62
2022/01/03 06:27:08;;;;;;;17.47;3.70;;;9.90;99.90;;;;;;5081185;28;20191;-62
2022/01/03 06:29:37;;;;;;;18.33;3.60;;;9.90;99.90;;;;;;5078674;28;20295;-62
2022/01/03 06:32:06;;;;;;;14.90;3.20;;;9.90;99.90;;;;;;5080247;28;20231;-62
2022/01/03 06:34:34;;;;;;;15.67;3.60;;;9.90;99.90;;;;;;5075429;28;20191;-62
2022/01/03 06:37:03;;;;;;;21.77;3.27;;;9.80;99.90;;;;;;5074108;28;20618;-62
2022/01/03 06:39:31;;;;;;;18.43;3.27;;;9.80;99.90;;;;;;5041198;28;20196;-61
2022/01/03 06:42:01;;;;;;;20.47;3.53;;;9.80;99.90;;;;;;5078986;28;20605;-62
2022/01/03 06:44:30;;;;;;;22.33;4.03;;;9.80;99.90;;;;;;5076317;28;20196;-62
2022/01/03 06:46:58;;;;;;;16.53;3.43;;;9.80;99.90;;;;;;5065434;28;20202;-61
2022/01/03 06:49:27;;;;;;;17.20;3.33;;;9.80;99.90;;;;;;5073220;28;20216;-62
2022/01/03 06:51:55;;;;;;;21.17;3.57;;;9.90;99.90;;;;;;5081183;28;20252;-62
2022/01/03 06:54:25;;;;;;;22.17;3.33;;;9.80;99.90;;;;;;5086983;28;20768;-62
2022/01/03 06:56:54;;;;;;;19.57;3.60;;;9.80;99.90;;;;;;5060903;28;20192;-62
2022/01/03 06:59:24;;;;;;;19.87;3.43;;;9.90;99.90;;;;;;5068436;28;20689;-62
2022/01/03 07:01:52;;;;;;;16.40;3.50;;;9.90;99.90;;;;;;5077639;28;20670;-62
2022/01/03 07:04:21;;;;;;;28.73;4.60;;;9.90;99.90;;;;;;5060803;28;21008;-61
2022/01/03 07:06:49;;;;;;;17.17;3.23;;;9.90;99.90;;;;;;5077574;28;20195;-62
2022/01/03 07:09:18;;;;;;;21.30;3.50;;;9.90;99.90;;;;;;5071035;28;20702;-62
2022/01/03 07:11:47;;;;;;;19.53;3.30;;;9.90;99.90;;;;;;5083946;28;21079;-61
2022/01/03 07:19:54;;;;;;;18.83;3.50;;;9.90;99.90;;;;;;5084197;28;20253;-62
2022/01/03 07:22:24;;;;;;;20.63;3.33;;;9.90;99.90;;;;;;5083274;28;20233;-62
2022/01/03 07:24:53;;;;;;;15.80;3.30;;;10.00;99.90;;;;;;5089891;28;20657;-62
2022/01/03 07:27:22;;;;;;;15.90;3.03;;;10.00;99.90;;;;;;5088570;28;20202;-62
2022/01/03 07:29:51;;;;;;;15.97;3.00;;;10.00;99.90;;;;;;5086153;28;20623;-62
2022/01/03 07:32:21;;;;;;;18.43;3.83;;;9.90;99.90;;;;;;5072111;28;20282;-62
2022/01/03 07:34:50;;;;;;;20.83;3.37;;;9.90;99.90;;;;;;5085441;28;20393;-62
2022/01/03 07:37:19;;;;;;;18.83;3.40;;;9.90;99.90;;;;;;5081923;28;20180;-61
2022/01/03 07:39:48;;;;;;;18.13;3.80;;;10.00;99.90;;;;;;5090491;28;20783;-61
2022/01/03 07:42:16;;;;;;;24.07;3.33;;;10.00;99.90;;;;;;5084621;28;20230;-62
2022/01/03 07:44:45;;;;;;;17.70;3.30;;;10.00;99.90;;;;;;5084073;28;20207;-62
2022/01/03 07:47:13;;;;;;;15.33;3.77;;;10.00;99.90;;;;;;5087215;28;20195;-62
2022/01/03 07:49:43;;;;;;;13.03;3.37;;;10.10;99.90;;;;;;5068602;28;20650;-62
2022/01/03 07:52:12;;;;;;;17.07;3.63;;;10.10;99.90;;;;;;5082465;28;20223;-62
2022/01/03 07:54:41;;;;;;;26.17;4.30;;;10.10;99.90;;;;;;5069088;28;20215;-62
2022/01/03 07:57:09;;;;;;;17.87;3.50;;;10.10;99.90;;;;;;5078265;28;20658;-62
2022/01/03 07:59:38;;;;;;;16.53;3.07;;;10.10;99.90;;;;;;5071359;28;20211;-61
2022/01/03 08:02:06;;;;;;;13.73;3.20;;;10.10;99.90;;;;;;5075694;28;20196;-62
2022/01/03 08:04:35;;;;;;;16.87;3.37;;;10.10;99.90;;;;;;5054763;28;20226;-62
2022/01/03 08:07:06;;;;;;;19.80;3.67;;;10.10;99.90;;;;;;5077216;28;20655;-62
2022/01/03 08:09:34;;;;;;;12.83;3.20;;;10.10;99.90;;;;;;5076085;28;20721;-62
2022/01/03 08:12:03;;;;;;;16.50;3.33;;;10.10;99.90;;;;;;5082415;28;20227;-62
2022/01/03 08:14:32;;;;;;;16.60;3.87;;;10.10;99.90;;;;;;5084875;28;20199;-62
2022/01/03 08:17:01;;;;;;;17.90;3.23;;;10.10;99.90;;;;;;5076141;28;20199;-62
2022/01/03 08:19:29;;;;;;;24.97;4.57;;;10.10;99.90;;;;;;5069702;28;20282;-62
2022/01/03 08:21:58;;;;;;;21.13;3.70;;;10.10;99.90;;;;;;5071478;28;20210;-62
2022/01/03 08:24:28;;;;;;;20.47;4.10;;;10.00;99.90;;;;;;5072726;28;20206;-62
2022/01/03 08:26:57;;;;;;;19.63;3.43;;;10.00;99.90;;;;;;5074203;28;20286;-62
2022/01/03 08:29:26;;;;;;;15.87;3.77;;;10.00;99.90;;;;;;5073477;28;20188;-62
2022/01/03 08:31:54;;;;;;;31.17;11.90;;;10.00;99.90;;;;;;5076479;28;20216;-62
2022/01/03 08:34:23;;;;;;;23.73;7.40;;;10.00;99.90;;;;;;5079176;28;20227;-61
2022/01/03 08:36:51;;;;;;;24.43;7.70;;;10.00;99.90;;;;;;5058733;28;20279;-62
2022/01/03 08:39:20;;;;;;;55.43;25.50;;;10.00;99.90;;;;;;5075122;28;20198;-62
2022/01/03 08:41:51;;;;;;;143.07;68.93;;;10.00;99.90;;;;;;5080806;28;20191;-62
2022/01/03 08:44:19;;;;;;;176.10;84.40;;;9.90;99.90;;;;;;5078233;28;20199;-62
2022/01/03 08:46:49;;;;;;;32.40;13.77;;;9.90;99.90;;;;;;5078408;28;20196;-62
2022/01/03 08:49:18;;;;;;;21.90;7.00;;;9.90;99.90;;;;;;5070422;28;20203;-62
2022/01/03 08:51:46;;;;;;;14.93;5.10;;;10.00;99.90;;;;;;5084926;28;20222;-62
2022/01/03 08:54:15;;;;;;;21.37;5.67;;;10.00;99.90;;;;;;5076855;28;20210;-62
2022/01/03 08:56:43;;;;;;;18.80;4.43;;;10.00;99.90;;;;;;5075831;28;20214;-62
2022/01/03 08:59:14;;;;;;;24.30;7.77;;;10.00;99.90;;;;;;5072264;28;20203;-62
2022/01/03 09:01:43;;;;;;;16.17;4.10;;;10.10;99.90;;;;;;5077642;28;20194;-62
2022/01/03 09:04:11;;;;;;;20.00;4.63;;;10.10;99.90;;;;;;5077851;28;20276;-62
2022/01/03 09:06:40;;;;;;;15.07;4.07;;;10.10;99.90;;;;;;5073809;28;20200;-62
2022/01/03 09:09:09;;;;;;;22.10;3.83;;;10.10;99.90;;;;;;5075644;28;20842;-62
2022/01/03 09:11:37;;;;;;;15.90;4.37;;;10.20;99.90;;;;;;5058241;28;20227;-61
2022/01/03 09:14:06;;;;;;;19.33;3.73;;;10.20;99.90;;;;;;5058164;28;20226;-62
2022/01/03 09:16:36;;;;;;;21.47;3.90;;;10.20;99.90;;;;;;5068664;28;20239;-62
2022/01/03 09:19:05;;;;;;;15.30;3.90;;;10.20;99.90;;;;;;5067067;28;20200;-62
2022/01/03 09:21:33;;;;;;;17.63;4.13;;;10.30;99.90;;;;;;5082571;28;20199;-62
2022/01/03 09:24:22;;;;;;;14.57;3.67;;;10.30;99.90;;;;;;5077274;28;20197;-62
2022/01/03 09:29:37;;;;;;;13.33;3.07;;;10.30;99.90;;;;;;5058041;28;20191;-62
2022/01/03 09:32:07;;;;;;;22.47;3.57;;;10.40;99.90;;;;;;5059886;28;20219;-62
2022/01/03 09:34:36;;;;;;;19.07;3.97;;;10.40;99.90;;;;;;5066435;28;20195;-61
2022/01/03 09:37:05;;;;;;;13.23;3.90;;;10.40;99.90;;;;;;5086311;28;20199;-62
2022/01/03 09:39:34;;;;;;;14.30;3.90;;;10.40;99.90;;;;;;5062989;28;20195;-62
2022/01/03 09:42:06;;;;;;;15.33;4.40;;;10.50;99.90;;;;;;5080291;28;20195;-62
2022/01/03 09:44:36;;;;;;;14.40;3.87;;;10.50;99.90;;;;;;5080905;28;20194;-62
2022/01/03 09:47:07;;;;;;;41.53;12.07;;;10.50;99.90;;;;;;5076956;28;20339;-62
2022/01/03 09:49:38;;;;;;;38.07;13.07;;;10.40;99.90;;;;;;5080883;28;20253;-62
2022/01/03 09:52:08;;;;;;;33.67;11.77;;;10.40;99.90;;;;;;5080518;28;20211;-62
2022/01/03 09:54:37;;;;;;;50.30;18.67;;;10.40;99.90;;;;;;5082960;28;20219;-62
2022/01/03 09:57:06;;;;;;;15.23;5.20;;;10.40;99.90;;;;;;5079440;28;20283;-61
2022/01/03 09:59:37;;;;;;;22.90;5.23;;;10.30;99.90;;;;;;5061850;28;20282;-62
2022/01/03 10:02:09;;;;;;;18.70;5.03;;;10.30;99.90;;;;;;5080557;28;20195;-61
2022/01/03 10:04:39;;;;;;;27.33;8.43;;;10.20;99.90;;;;;;5075360;28;20209;-61
2022/01/03 10:07:11;;;;;;;55.97;24.97;;;10.10;99.90;;;;;;5074310;28;20211;-62
2022/01/03 10:09:41;;;;;;;86.70;36.80;;;10.10;99.90;;;;;;5092259;28;20196;-62
2022/01/03 10:12:12;;;;;;;24.07;5.70;;;10.10;99.90;;;;;;5074875;28;20754;-61
2022/01/03 10:14:42;;;;;;;22.23;5.17;;;10.10;99.90;;;;;;5074917;28;20227;-62
2022/01/03 10:17:12;;;;;;;23.13;5.80;;;10.10;99.90;;;;;;5075106;28;20655;-62
2022/01/03 10:19:52;;;;;;;17.17;4.17;;;10.10;99.90;;;;;;5074977;28;20195;-61
2022/01/03 10:22:23;;;;;;;22.50;4.97;;;10.10;99.90;;;;;;5078379;28;20213;-62
2022/01/03 10:24:52;;;;;;;25.87;6.33;;;10.10;99.90;;;;;;5077402;28;20286;-62
2022/01/03 10:27:22;;;;;;;16.27;4.83;;;10.10;99.90;;;;;;5071794;28;20239;-62
2022/01/03 10:29:59;;;;;;;22.17;4.37;;;10.10;99.90;;;;;;5071889;28;20200;-61
2022/01/03 10:32:31;;;;;;;22.93;7.07;;;10.10;99.90;;;;;;5080718;28;20318;-62
2022/01/03 10:35:15;;;;;;;29.23;8.43;;;10.10;99.90;;;;;;5073792;28;20223;-62
2022/01/03 10:37:44;;;;;;;33.73;6.73;;;10.20;99.90;;;;;;5077717;28;20840;-62
2022/01/03 10:40:28;;;;;;;35.37;9.30;;;10.20;99.90;;;;;;5081754;28;20268;-61
2022/01/03 10:42:57;;;;;;;23.17;5.87;;;10.20;99.90;;;;;;5067593;28;20270;-61
2022/01/03 10:45:32;;;;;;;20.43;4.03;;;10.20;99.90;;;;;;5057446;28;20198;-61
2022/01/03 10:48:03;;;;;;;25.63;4.80;;;10.30;99.90;;;;;;5068426;28;20199;-61
2022/01/03 10:50:31;;;;;;;21.83;4.53;;;10.40;99.90;;;;;;5061628;28;20196;-62
2022/01/03 10:53:04;;;;;;;24.40;4.60;;;10.40;99.90;;;;;;5066786;28;20243;-61
2022/01/03 10:55:34;;;;;;;24.03;5.17;;;10.50;99.90;;;;;;5073746;28;20219;-62
2022/01/03 10:58:04;;;;;;;45.90;17.07;;;10.50;99.90;;;;;;5075792;28;20196;-62
2022/01/03 11:00:35;;;;;;;43.20;15.97;;;10.50;99.90;;;;;;5058753;28;20207;-61
2022/01/03 11:03:14;;;;;;;18.77;5.00;;;10.40;99.90;;;;;;5077059;28;20265;-61
2022/01/03 11:05:47;;;;;;;16.33;4.73;;;10.40;99.90;;;;;;5077349;28;20269;-61
2022/01/03 11:11:08;;;;;;;21.07;5.13;;;10.50;99.90;;;;;;5069995;28;20200;-61
2022/01/03 11:13:39;;;;;;;28.07;10.17;;;10.40;99.90;;;;;;5086931;28;20210;-61
2022/01/03 11:16:10;;;;;;;18.53;5.20;;;10.40;99.90;;;;;;5081556;28;20313;-61
2022/01/03 11:18:45;;;;;;;36.67;9.57;;;10.40;99.90;;;;;;5071429;28;20559;-61
2022/01/03 11:21:16;;;;;;;28.43;8.03;;;10.30;99.90;;;;;;5078053;28;20194;-61
2022/01/03 11:23:47;;;;;;;22.20;4.20;;;10.30;99.90;;;;;;5077292;28;20554;-61
2022/01/03 11:26:17;;;;;;;21.23;5.30;;;10.30;99.90;;;;;;5075211;28;20206;-62
2022/01/03 11:28:47;;;;;;;20.83;3.50;;;10.20;99.90;;;;;;5081653;28;20230;-62
2022/01/03 11:31:18;;;;;;;12.80;3.00;;;10.20;99.90;;;;;;5082617;28;20198;-61
2022/01/03 11:33:50;;;;;;;13.67;3.67;;;10.10;99.90;;;;;;5081124;28;20273;-62
2022/01/03 11:36:40;;;;;;;15.30;5.07;;;10.00;99.90;;;;;;5082580;28;20214;-61
2022/01/03 11:39:11;;;;;;;13.20;4.13;;;10.00;99.90;;;;;;5072376;28;20192;-62
2022/01/03 11:41:44;;;;;;;16.97;6.27;;;10.00;99.90;;;;;;5080960;28;20197;-62
2022/01/03 11:44:15;;;;;;;31.70;10.57;;;10.00;99.90;;;;;;5083903;28;20201;-61
2022/01/03 11:46:44;;;;;;;27.70;7.93;;;9.90;99.90;;;;;;5076209;28;20678;-62
2022/01/03 11:49:16;;;;;;;23.00;8.37;;;9.90;99.90;;;;;;5080145;28;20205;-61
2022/01/03 11:51:46;;;;;;;19.20;5.10;;;9.90;99.90;;;;;;5075931;28;20269;-61
2022/01/03 11:54:16;;;;;;;16.87;6.00;;;9.90;99.90;;;;;;5080412;28;20215;-62
2022/01/03 11:56:50;;;;;;;33.27;10.33;;;9.90;99.90;;;;;;5077170;28;20218;-62
2022/01/03 12:03:36;;;;;;;35.87;15.30;;;9.90;99.90;;;;;;5077740;28;20196;-62
2022/01/03 12:05:18;;;;;;;14.37;3.90;;;9.80;99.90;;;;;;5063626;28;20204;-62
2022/01/03 12:07:58;;;;;;;17.07;4.23;;;9.80;99.90;;;;;;5070783;28;20195;-61
2022/01/03 12:10:26;;;;;;;14.17;3.27;;;9.80;99.90;;;;;;5082269;28;20829;-61
2022/01/03 12:13:00;;;;;;;14.70;3.30;;;9.80;99.90;;;;;;5067063;28;20263;-61
2022/01/03 12:15:34;;;;;;;11.07;3.00;;;9.80;99.90;;;;;;5079667;28;20261;-62
2022/01/03 12:18:04;;;;;;;11.63;2.93;;;9.80;99.90;;;;;;5081137;28;20267;-61
2022/01/03 12:20:43;;;;;;;10.63;3.60;;;9.80;99.90;;;;;;5063520;28;20283;-62
2022/01/03 12:23:39;;;;;;;16.43;3.67;;;9.70;99.90;;;;;;5061673;28;20234;-62
2022/01/03 12:26:12;;;;;;;9.70;2.87;;;9.70;99.90;;;;;;5074689;28;20196;-62
2022/01/03 12:29:07;;;;;;;15.27;2.90;;;9.70;99.90;;;;;;5089023;28;20266;-62
2022/01/03 12:32:13;;;;;;;9.73;2.37;;;9.70;99.90;;;;;;5079334;28;20207;-62
2022/01/03 12:34:42;;;;;;;13.63;2.90;;;9.60;99.90;;;;;;5086851;28;20269;-62
2022/01/03 12:37:20;;;;;;;8.30;3.23;;;9.60;99.90;;;;;;5079081;28;20199;-62
2022/01/03 12:40:13;;;;;;;9.53;3.00;;;9.60;99.90;;;;;;5077988;28;20207;-62
2022/01/03 12:42:56;;;;;;;7.20;2.60;;;9.60;99.90;;;;;;5063148;28;20208;-62
2022/01/03 12:45:51;;;;;;;5.40;2.43;;;9.60;99.90;;;;;;5065579;28;20581;-62
2022/01/03 12:48:20;;;;;;;7.63;2.43;;;9.50;99.90;;;;;;5079224;28;20197;-62
2022/01/03 12:51:14;;;;;;;6.47;2.63;;;9.50;99.90;;;;;;5084722;28;20200;-62
2022/01/03 12:53:49;;;;;;;10.83;2.70;;;9.50;99.90;;;;;;5081131;28;20211;-62
2022/01/03 12:56:21;;;;;;;7.10;3.27;;;9.50;99.90;;;;;;5072469;28;20270;-61
2022/01/03 12:58:52;;;;;;;6.50;2.10;;;9.50;99.90;;;;;;5072768;28;20287;-62
2022/01/03 13:01:38;;;;;;;5.67;2.23;;;9.40;99.90;;;;;;5072552;28;20183;-62
2022/01/03 13:04:21;;;;;;;4.00;2.10;;;9.40;99.90;;;;;;5075592;28;20612;-62
2022/01/03 13:06:50;;;;;;;11.43;2.30;;;9.40;99.90;;;;;;5076296;28;20658;-62
2022/01/03 13:09:22;;;;;;;3.93;2.20;;;9.30;99.90;;;;;;5075821;28;20202;-63
2022/01/03 13:11:51;;;;;;;5.60;2.33;;;9.30;99.90;;;;;;5074027;28;20230;-62
2022/01/03 13:14:21;;;;;;;7.33;1.87;;;9.30;99.90;;;;;;5074647;28;20227;-62
2022/01/03 13:16:51;;;;;;;5.30;1.90;;;9.30;99.90;;;;;;5081937;28;20199;-62